sensor_id;sensor_type;location;lat;lon;timestamp;P1;durP1;ratioP1;P2;durP2;ratioP2
13959;SDS011;7052;51.050;3.716;2023-05-19T00:00:23;14.27;;;9.40;;
13959;SDS011;7052;51.050;3.716;2023-05-19T00:02:50;14.97;;;9.43;;
13959;SDS011;7052;51.050;3.716;2023-05-19T00:05:20;14.43;;;9.60;;
13959;SDS011;7052;51.050;3.716;2023-05-19T00:07:49;16.07;;;10.13;;
13959;SDS011;7052;51.050;3.716;2023-05-19T00:10:18;14.17;;;9.67;;
13959;SDS011;7052;51.050;3.716;2023-05-19T00:12:45;17.37;;;9.43;;
13959;SDS011;7052;51.050;3.716;2023-05-19T00:15:13;16.40;;;10.10;;
13959;SDS011;7052;51.050;3.716;2023-05-19T00:17:42;15.97;;;9.90;;
13959;SDS011;7052;51.050;3.716;2023-05-19T00:20:11;16.03;;;10.27;;
13959;SDS011;7052;51.050;3.716;2023-05-19T00:22:39;13.97;;;10.20;;
13959;SDS011;7052;51.050;3.716;2023-05-19T00:25:09;18.40;;;10.53;;
13959;SDS011;7052;51.050;3.716;2023-05-19T00:27:36;15.30;;;9.93;;
13959;SDS011;7052;51.050;3.716;2023-05-19T00:30:04;17.57;;;10.53;;
13959;SDS011;7052;51.050;3.716;2023-05-19T00:32:35;16.80;;;11.33;;
13959;SDS011;7052;51.050;3.716;2023-05-19T00:35:04;18.10;;;10.47;;
13959;SDS011;7052;51.050;3.716;2023-05-19T00:37:31;15.13;;;10.10;;
13959;SDS011;7052;51.050;3.716;2023-05-19T00:39:59;14.07;;;10.60;;
13959;SDS011;7052;51.050;3.716;2023-05-19T00:42:26;16.53;;;10.87;;
13959;SDS011;7052;51.050;3.716;2023-05-19T00:44:53;17.47;;;11.37;;
13959;SDS011;7052;51.050;3.716;2023-05-19T00:47:21;17.17;;;11.43;;
13959;SDS011;7052;51.050;3.716;2023-05-19T00:49:48;15.60;;;11.63;;
13959;SDS011;7052;51.050;3.716;2023-05-19T00:52:17;17.27;;;11.70;;
13959;SDS011;7052;51.050;3.716;2023-05-19T00:54:44;15.50;;;11.03;;
13959;SDS011;7052;51.050;3.716;2023-05-19T00:57:17;17.13;;;11.80;;
13959;SDS011;7052;51.050;3.716;2023-05-19T00:59:44;15.67;;;11.53;;
13959;SDS011;7052;51.050;3.716;2023-05-19T01:02:12;16.97;;;11.47;;
13959;SDS011;7052;51.050;3.716;2023-05-19T01:04:39;15.90;;;11.77;;
13959;SDS011;7052;51.050;3.716;2023-05-19T01:07:08;16.90;;;10.93;;
13959;SDS011;7052;51.050;3.716;2023-05-19T01:09:39;17.20;;;11.80;;
13959;SDS011;7052;51.050;3.716;2023-05-19T01:12:06;13.93;;;11.27;;
13959;SDS011;7052;51.050;3.716;2023-05-19T01:14:37;16.20;;;12.47;;
13959;SDS011;7052;51.050;3.716;2023-05-19T01:17:08;13.80;;;11.47;;
13959;SDS011;7052;51.050;3.716;2023-05-19T01:20:02;17.57;;;10.90;;
13959;SDS011;7052;51.050;3.716;2023-05-19T01:22:39;18.27;;;11.20;;
13959;SDS011;7052;51.050;3.716;2023-05-19T01:31:29;16.93;;;11.00;;
13959;SDS011;7052;51.050;3.716;2023-05-19T01:33:57;12.67;;;10.97;;
13959;SDS011;7052;51.050;3.716;2023-05-19T01:36:27;15.53;;;10.70;;
13959;SDS011;7052;51.050;3.716;2023-05-19T01:38:55;16.57;;;11.00;;
13959;SDS011;7052;51.050;3.716;2023-05-19T01:41:23;16.07;;;10.57;;
13959;SDS011;7052;51.050;3.716;2023-05-19T01:43:52;17.20;;;10.83;;
13959;SDS011;7052;51.050;3.716;2023-05-19T01:46:22;18.30;;;11.77;;
13959;SDS011;7052;51.050;3.716;2023-05-19T01:48:51;19.10;;;12.37;;
13959;SDS011;7052;51.050;3.716;2023-05-19T01:51:18;14.23;;;11.60;;
13959;SDS011;7052;51.050;3.716;2023-05-19T01:53:45;17.67;;;11.67;;
13959;SDS011;7052;51.050;3.716;2023-05-19T01:56:13;15.73;;;11.10;;
13959;SDS011;7052;51.050;3.716;2023-05-19T01:58:46;16.13;;;10.50;;
13959;SDS011;7052;51.050;3.716;2023-05-19T02:01:19;15.90;;;10.73;;
13959;SDS011;7052;51.050;3.716;2023-05-19T02:04:00;15.47;;;10.00;;
13959;SDS011;7052;51.050;3.716;2023-05-19T02:06:40;11.83;;;8.63;;
13959;SDS011;7052;51.050;3.716;2023-05-19T02:09:12;10.33;;;7.80;;
13959;SDS011;7052;51.050;3.716;2023-05-19T02:11:44;11.27;;;7.70;;
13959;SDS011;7052;51.050;3.716;2023-05-19T02:14:24;10.37;;;7.50;;
13959;SDS011;7052;51.050;3.716;2023-05-19T02:16:55;9.87;;;7.40;;
13959;SDS011;7052;51.050;3.716;2023-05-19T02:19:27;10.97;;;7.83;;
13959;SDS011;7052;51.050;3.716;2023-05-19T02:21:56;9.10;;;7.77;;
13959;SDS011;7052;51.050;3.716;2023-05-19T02:24:23;11.50;;;8.00;;
13959;SDS011;7052;51.050;3.716;2023-05-19T02:26:52;13.23;;;8.37;;
13959;SDS011;7052;51.050;3.716;2023-05-19T02:29:20;13.37;;;8.87;;
13959;SDS011;7052;51.050;3.716;2023-05-19T02:31:49;13.07;;;8.77;;
13959;SDS011;7052;51.050;3.716;2023-05-19T02:34:18;9.63;;;8.50;;
13959;SDS011;7052;51.050;3.716;2023-05-19T02:36:47;13.47;;;8.97;;
13959;SDS011;7052;51.050;3.716;2023-05-19T02:39:15;16.17;;;9.97;;
13959;SDS011;7052;51.050;3.716;2023-05-19T02:41:42;15.50;;;9.83;;
13959;SDS011;7052;51.050;3.716;2023-05-19T02:44:09;13.13;;;9.73;;
13959;SDS011;7052;51.050;3.716;2023-05-19T02:46:36;15.73;;;10.20;;
13959;SDS011;7052;51.050;3.716;2023-05-19T02:49:03;13.50;;;9.47;;
13959;SDS011;7052;51.050;3.716;2023-05-19T02:51:30;13.97;;;9.87;;
13959;SDS011;7052;51.050;3.716;2023-05-19T02:53:58;14.07;;;9.93;;
13959;SDS011;7052;51.050;3.716;2023-05-19T02:56:25;14.83;;;10.50;;
13959;SDS011;7052;51.050;3.716;2023-05-19T02:58:53;13.63;;;10.47;;
13959;SDS011;7052;51.050;3.716;2023-05-19T03:01:21;16.53;;;11.20;;
13959;SDS011;7052;51.050;3.716;2023-05-19T03:03:48;16.93;;;10.53;;
13959;SDS011;7052;51.050;3.716;2023-05-19T03:06:16;16.30;;;11.53;;
13959;SDS011;7052;51.050;3.716;2023-05-19T03:08:43;17.10;;;12.10;;
13959;SDS011;7052;51.050;3.716;2023-05-19T03:11:15;14.23;;;10.97;;
13959;SDS011;7052;51.050;3.716;2023-05-19T03:13:42;16.23;;;10.83;;
13959;SDS011;7052;51.050;3.716;2023-05-19T03:16:12;18.07;;;11.50;;
13959;SDS011;7052;51.050;3.716;2023-05-19T03:18:39;16.10;;;11.73;;
13959;SDS011;7052;51.050;3.716;2023-05-19T03:21:06;18.33;;;11.80;;
13959;SDS011;7052;51.050;3.716;2023-05-19T03:23:34;18.63;;;12.50;;
13959;SDS011;7052;51.050;3.716;2023-05-19T03:26:01;18.03;;;11.83;;
13959;SDS011;7052;51.050;3.716;2023-05-19T03:28:29;19.07;;;11.90;;
13959;SDS011;7052;51.050;3.716;2023-05-19T03:30:56;14.97;;;10.83;;
13959;SDS011;7052;51.050;3.716;2023-05-19T03:33:23;20.77;;;12.77;;
13959;SDS011;7052;51.050;3.716;2023-05-19T03:35:53;17.03;;;12.10;;
13959;SDS011;7052;51.050;3.716;2023-05-19T03:38:21;16.73;;;11.70;;
13959;SDS011;7052;51.050;3.716;2023-05-19T03:40:48;19.37;;;11.63;;
13959;SDS011;7052;51.050;3.716;2023-05-19T03:43:15;18.10;;;11.73;;
13959;SDS011;7052;51.050;3.716;2023-05-19T03:45:45;15.87;;;12.47;;
13959;SDS011;7052;51.050;3.716;2023-05-19T03:48:12;17.73;;;12.40;;
13959;SDS011;7052;51.050;3.716;2023-05-19T03:50:39;19.47;;;15.10;;
13959;SDS011;7052;51.050;3.716;2023-05-19T03:53:08;19.47;;;13.50;;
13959;SDS011;7052;51.050;3.716;2023-05-19T03:55:37;16.57;;;11.70;;
13959;SDS011;7052;51.050;3.716;2023-05-19T03:58:04;17.10;;;11.13;;
13959;SDS011;7052;51.050;3.716;2023-05-19T04:00:31;13.37;;;9.83;;
13959;SDS011;7052;51.050;3.716;2023-05-19T04:03:01;12.13;;;9.17;;
13959;SDS011;7052;51.050;3.716;2023-05-19T04:05:36;13.60;;;9.27;;
13959;SDS011;7052;51.050;3.716;2023-05-19T04:08:04;14.73;;;8.50;;
13959;SDS011;7052;51.050;3.716;2023-05-19T04:10:31;11.80;;;8.33;;
13959;SDS011;7052;51.050;3.716;2023-05-19T04:12:58;11.70;;;8.10;;
13959;SDS011;7052;51.050;3.716;2023-05-19T04:15:36;14.50;;;8.50;;
13959;SDS011;7052;51.050;3.716;2023-05-19T04:18:05;13.37;;;8.00;;
13959;SDS011;7052;51.050;3.716;2023-05-19T04:20:32;10.53;;;8.13;;
13959;SDS011;7052;51.050;3.716;2023-05-19T04:23:01;12.77;;;8.27;;
13959;SDS011;7052;51.050;3.716;2023-05-19T04:25:28;14.70;;;7.60;;
13959;SDS011;7052;51.050;3.716;2023-05-19T04:27:55;14.53;;;7.40;;
13959;SDS011;7052;51.050;3.716;2023-05-19T04:30:25;13.13;;;7.77;;
13959;SDS011;7052;51.050;3.716;2023-05-19T04:32:52;12.50;;;7.70;;
13959;SDS011;7052;51.050;3.716;2023-05-19T04:35:23;9.00;;;7.77;;
13959;SDS011;7052;51.050;3.716;2023-05-19T04:37:50;10.23;;;7.93;;
13959;SDS011;7052;51.050;3.716;2023-05-19T04:40:19;10.93;;;7.67;;
13959;SDS011;7052;51.050;3.716;2023-05-19T04:42:48;11.03;;;7.23;;
13959;SDS011;7052;51.050;3.716;2023-05-19T04:45:16;14.43;;;7.23;;
13959;SDS011;7052;51.050;3.716;2023-05-19T04:47:43;11.30;;;7.10;;
13959;SDS011;7052;51.050;3.716;2023-05-19T04:50:10;11.83;;;7.00;;
13959;SDS011;7052;51.050;3.716;2023-05-19T04:52:39;11.97;;;7.60;;
13959;SDS011;7052;51.050;3.716;2023-05-19T04:55:10;18.40;;;8.13;;
13959;SDS011;7052;51.050;3.716;2023-05-19T04:57:37;13.60;;;7.20;;
13959;SDS011;7052;51.050;3.716;2023-05-19T05:00:04;9.90;;;6.80;;
13959;SDS011;7052;51.050;3.716;2023-05-19T05:02:36;13.20;;;7.10;;
13959;SDS011;7052;51.050;3.716;2023-05-19T05:05:04;10.17;;;6.90;;
13959;SDS011;7052;51.050;3.716;2023-05-19T05:07:32;13.70;;;7.30;;
13959;SDS011;7052;51.050;3.716;2023-05-19T05:10:01;10.60;;;6.90;;
13959;SDS011;7052;51.050;3.716;2023-05-19T05:12:29;9.43;;;6.80;;
13959;SDS011;7052;51.050;3.716;2023-05-19T05:14:57;11.47;;;7.20;;
13959;SDS011;7052;51.050;3.716;2023-05-19T05:17:24;11.73;;;7.03;;
13959;SDS011;7052;51.050;3.716;2023-05-19T05:19:52;10.97;;;7.10;;
13959;SDS011;7052;51.050;3.716;2023-05-19T05:22:22;13.10;;;7.80;;
13959;SDS011;7052;51.050;3.716;2023-05-19T05:24:50;12.10;;;7.33;;
13959;SDS011;7052;51.050;3.716;2023-05-19T05:27:21;11.43;;;7.80;;
13959;SDS011;7052;51.050;3.716;2023-05-19T05:29:50;11.03;;;7.40;;
13959;SDS011;7052;51.050;3.716;2023-05-19T05:32:17;14.50;;;8.47;;
13959;SDS011;7052;51.050;3.716;2023-05-19T05:34:45;14.07;;;7.77;;
13959;SDS011;7052;51.050;3.716;2023-05-19T05:37:12;12.13;;;7.60;;
13959;SDS011;7052;51.050;3.716;2023-05-19T05:39:39;14.10;;;7.77;;
13959;SDS011;7052;51.050;3.716;2023-05-19T05:42:07;14.33;;;7.93;;
13959;SDS011;7052;51.050;3.716;2023-05-19T05:44:36;21.83;;;10.27;;
13959;SDS011;7052;51.050;3.716;2023-05-19T05:47:05;12.13;;;7.87;;
13959;SDS011;7052;51.050;3.716;2023-05-19T05:49:36;10.53;;;8.00;;
13959;SDS011;7052;51.050;3.716;2023-05-19T05:52:04;11.87;;;8.00;;
13959;SDS011;7052;51.050;3.716;2023-05-19T05:54:35;11.37;;;7.70;;
13959;SDS011;7052;51.050;3.716;2023-05-19T05:57:06;13.67;;;8.50;;
13959;SDS011;7052;51.050;3.716;2023-05-19T05:59:36;11.07;;;7.00;;
13959;SDS011;7052;51.050;3.716;2023-05-19T06:02:04;16.27;;;8.47;;
13959;SDS011;7052;51.050;3.716;2023-05-19T06:04:32;9.47;;;7.73;;
13959;SDS011;7052;51.050;3.716;2023-05-19T06:06:59;12.30;;;7.87;;
13959;SDS011;7052;51.050;3.716;2023-05-19T06:09:27;11.63;;;7.07;;
13959;SDS011;7052;51.050;3.716;2023-05-19T06:11:56;11.48;;;7.10;;
13959;SDS011;7052;51.050;3.716;2023-05-19T06:14:24;9.55;;;7.32;;
13959;SDS011;7052;51.050;3.716;2023-05-19T06:16:53;9.27;;;7.00;;
13959;SDS011;7052;51.050;3.716;2023-05-19T06:19:20;11.43;;;7.18;;
13959;SDS011;7052;51.050;3.716;2023-05-19T06:21:49;10.75;;;6.65;;
13959;SDS011;7052;51.050;3.716;2023-05-19T06:24:16;8.93;;;6.93;;
13959;SDS011;7052;51.050;3.716;2023-05-19T06:26:51;8.82;;;6.50;;
13959;SDS011;7052;51.050;3.716;2023-05-19T06:29:18;9.38;;;6.63;;
13959;SDS011;7052;51.050;3.716;2023-05-19T06:31:45;10.90;;;7.03;;
13959;SDS011;7052;51.050;3.716;2023-05-19T06:34:16;10.70;;;7.20;;
13959;SDS011;7052;51.050;3.716;2023-05-19T06:36:43;13.60;;;7.13;;
13959;SDS011;7052;51.050;3.716;2023-05-19T06:39:10;8.60;;;6.68;;
13959;SDS011;7052;51.050;3.716;2023-05-19T06:41:41;10.50;;;6.80;;
13959;SDS011;7052;51.050;3.716;2023-05-19T06:44:08;9.00;;;6.97;;
13959;SDS011;7052;51.050;3.716;2023-05-19T06:46:35;10.82;;;7.05;;
13959;SDS011;7052;51.050;3.716;2023-05-19T06:49:02;8.13;;;6.97;;
13959;SDS011;7052;51.050;3.716;2023-05-19T06:51:32;20.52;;;8.88;;
13959;SDS011;7052;51.050;3.716;2023-05-19T06:54:04;11.75;;;7.00;;
13959;SDS011;7052;51.050;3.716;2023-05-19T06:56:35;10.88;;;7.43;;
13959;SDS011;7052;51.050;3.716;2023-05-19T06:59:01;8.38;;;7.35;;
13959;SDS011;7052;51.050;3.716;2023-05-19T07:01:31;13.05;;;7.32;;
13959;SDS011;7052;51.050;3.716;2023-05-19T07:03:58;8.60;;;6.95;;
13959;SDS011;7052;51.050;3.716;2023-05-19T07:06:25;11.35;;;7.30;;
13959;SDS011;7052;51.050;3.716;2023-05-19T07:08:54;13.32;;;7.80;;
13959;SDS011;7052;51.050;3.716;2023-05-19T07:11:22;11.30;;;7.72;;
13959;SDS011;7052;51.050;3.716;2023-05-19T07:13:50;11.82;;;7.88;;
13959;SDS011;7052;51.050;3.716;2023-05-19T07:16:18;12.18;;;6.68;;
13959;SDS011;7052;51.050;3.716;2023-05-19T07:18:46;12.55;;;7.80;;
13959;SDS011;7052;51.050;3.716;2023-05-19T07:21:13;10.10;;;7.25;;
13959;SDS011;7052;51.050;3.716;2023-05-19T07:23:40;11.50;;;7.32;;
13959;SDS011;7052;51.050;3.716;2023-05-19T07:26:11;10.75;;;7.45;;
13959;SDS011;7052;51.050;3.716;2023-05-19T07:28:38;10.20;;;7.10;;
13959;SDS011;7052;51.050;3.716;2023-05-19T07:31:06;11.73;;;7.45;;
13959;SDS011;7052;51.050;3.716;2023-05-19T07:33:33;12.60;;;7.28;;
13959;SDS011;7052;51.050;3.716;2023-05-19T07:36:00;9.93;;;7.50;;
13959;SDS011;7052;51.050;3.716;2023-05-19T07:38:29;13.00;;;7.50;;
13959;SDS011;7052;51.050;3.716;2023-05-19T07:40:58;14.82;;;7.80;;
13959;SDS011;7052;51.050;3.716;2023-05-19T07:43:29;20.42;;;8.88;;
13959;SDS011;7052;51.050;3.716;2023-05-19T07:45:56;11.73;;;7.45;;
13959;SDS011;7052;51.050;3.716;2023-05-19T07:48:24;10.48;;;7.07;;
13959;SDS011;7052;51.050;3.716;2023-05-19T07:50:52;12.57;;;7.35;;
13959;SDS011;7052;51.050;3.716;2023-05-19T07:53:21;14.60;;;8.07;;
13959;SDS011;7052;51.050;3.716;2023-05-19T07:55:53;12.48;;;7.60;;
13959;SDS011;7052;51.050;3.716;2023-05-19T07:58:20;21.55;;;14.77;;
13959;SDS011;7052;51.050;3.716;2023-05-19T08:00:48;21.20;;;13.73;;
13959;SDS011;7052;51.050;3.716;2023-05-19T08:03:15;22.58;;;16.13;;
13959;SDS011;7052;51.050;3.716;2023-05-19T08:05:42;28.63;;;18.65;;
13959;SDS011;7052;51.050;3.716;2023-05-19T08:08:11;33.42;;;24.38;;
13959;SDS011;7052;51.050;3.716;2023-05-19T08:10:41;36.53;;;27.92;;
13959;SDS011;7052;51.050;3.716;2023-05-19T08:13:10;42.47;;;32.58;;
13959;SDS011;7052;51.050;3.716;2023-05-19T08:15:38;52.22;;;37.53;;
13959;SDS011;7052;51.050;3.716;2023-05-19T08:18:08;59.97;;;42.83;;
13959;SDS011;7052;51.050;3.716;2023-05-19T08:20:35;72.53;;;53.97;;
13959;SDS011;7052;51.050;3.716;2023-05-19T08:23:02;68.82;;;50.45;;
13959;SDS011;7052;51.050;3.716;2023-05-19T08:25:30;71.85;;;50.95;;
13959;SDS011;7052;51.050;3.716;2023-05-19T08:27:57;76.43;;;54.38;;
13959;SDS011;7052;51.050;3.716;2023-05-19T08:30:25;141.23;;;59.15;;
13959;SDS011;7052;51.050;3.716;2023-05-19T08:32:53;84.18;;;61.35;;
13959;SDS011;7052;51.050;3.716;2023-05-19T08:35:24;85.93;;;59.38;;
13959;SDS011;7052;51.050;3.716;2023-05-19T08:37:51;66.18;;;49.00;;
13959;SDS011;7052;51.050;3.716;2023-05-19T08:40:20;69.75;;;48.70;;
13959;SDS011;7052;51.050;3.716;2023-05-19T08:42:49;58.70;;;42.05;;
13959;SDS011;7052;51.050;3.716;2023-05-19T08:45:30;47.83;;;36.40;;
13959;SDS011;7052;51.050;3.716;2023-05-19T08:48:00;41.33;;;28.35;;
13959;SDS011;7052;51.050;3.716;2023-05-19T08:50:29;38.17;;;24.58;;
13959;SDS011;7052;51.050;3.716;2023-05-19T08:53:01;28.45;;;20.75;;
13959;SDS011;7052;51.050;3.716;2023-05-19T08:55:35;30.83;;;21.10;;
13959;SDS011;7052;51.050;3.716;2023-05-19T08:58:12;30.40;;;21.25;;
13959;SDS011;7052;51.050;3.716;2023-05-19T09:00:40;28.58;;;20.17;;
13959;SDS011;7052;51.050;3.716;2023-05-19T09:03:09;33.40;;;23.30;;
13959;SDS011;7052;51.050;3.716;2023-05-19T09:05:41;36.22;;;24.98;;
13959;SDS011;7052;51.050;3.716;2023-05-19T09:08:09;36.47;;;25.67;;
13959;SDS011;7052;51.050;3.716;2023-05-19T09:10:37;31.17;;;21.63;;
13959;SDS011;7052;51.050;3.716;2023-05-19T09:13:04;28.23;;;20.42;;
13959;SDS011;7052;51.050;3.716;2023-05-19T09:15:32;38.20;;;21.60;;
13959;SDS011;7052;51.050;3.716;2023-05-19T09:18:07;31.20;;;22.15;;
13959;SDS011;7052;51.050;3.716;2023-05-19T09:20:36;30.23;;;22.20;;
13959;SDS011;7052;51.050;3.716;2023-05-19T09:23:06;37.22;;;25.83;;
13959;SDS011;7052;51.050;3.716;2023-05-19T09:25:33;35.33;;;23.77;;
13959;SDS011;7052;51.050;3.716;2023-05-19T09:28:00;33.53;;;24.00;;
13959;SDS011;7052;51.050;3.716;2023-05-19T09:30:27;26.50;;;20.48;;
13959;SDS011;7052;51.050;3.716;2023-05-19T09:32:56;27.75;;;19.42;;
13959;SDS011;7052;51.050;3.716;2023-05-19T09:35:25;34.30;;;23.27;;
13959;SDS011;7052;51.050;3.716;2023-05-19T09:37:53;32.10;;;20.98;;
13959;SDS011;7052;51.050;3.716;2023-05-19T09:40:22;29.90;;;22.00;;
13959;SDS011;7052;51.050;3.716;2023-05-19T09:42:54;36.17;;;18.92;;
13959;SDS011;7052;51.050;3.716;2023-05-19T09:45:21;26.05;;;16.85;;
13959;SDS011;7052;51.050;3.716;2023-05-19T09:47:52;24.88;;;17.50;;
13959;SDS011;7052;51.050;3.716;2023-05-19T09:50:19;21.45;;;14.18;;
13959;SDS011;7052;51.050;3.716;2023-05-19T09:52:47;20.23;;;14.27;;
13959;SDS011;7052;51.050;3.716;2023-05-19T09:55:15;23.80;;;13.55;;
13959;SDS011;7052;51.050;3.716;2023-05-19T09:57:50;23.55;;;15.75;;
13959;SDS011;7052;51.050;3.716;2023-05-19T10:00:21;22.95;;;14.90;;
13959;SDS011;7052;51.050;3.716;2023-05-19T10:02:48;17.52;;;13.45;;
13959;SDS011;7052;51.050;3.716;2023-05-19T10:05:16;20.88;;;12.60;;
13959;SDS011;7052;51.050;3.716;2023-05-19T10:07:45;18.95;;;11.65;;
13959;SDS011;7052;51.050;3.716;2023-05-19T10:10:13;18.77;;;12.38;;
13959;SDS011;7052;51.050;3.716;2023-05-19T10:12:41;16.77;;;11.80;;
13959;SDS011;7052;51.050;3.716;2023-05-19T10:15:12;15.13;;;10.20;;
13959;SDS011;7052;51.050;3.716;2023-05-19T10:17:40;16.17;;;10.25;;
13959;SDS011;7052;51.050;3.716;2023-05-19T10:20:09;13.75;;;9.82;;
13959;SDS011;7052;51.050;3.716;2023-05-19T10:22:39;13.73;;;9.38;;
13959;SDS011;7052;51.050;3.716;2023-05-19T10:25:08;14.20;;;8.60;;
13959;SDS011;7052;51.050;3.716;2023-05-19T10:27:39;13.52;;;9.02;;
13959;SDS011;7052;51.050;3.716;2023-05-19T10:30:17;11.25;;;7.97;;
13959;SDS011;7052;51.050;3.716;2023-05-19T10:32:48;14.57;;;7.78;;
13959;SDS011;7052;51.050;3.716;2023-05-19T10:35:23;12.20;;;8.55;;
13959;SDS011;7052;51.050;3.716;2023-05-19T10:38:10;11.30;;;7.45;;
13959;SDS011;7052;51.050;3.716;2023-05-19T10:40:50;13.27;;;6.88;;
13959;SDS011;7052;51.050;3.716;2023-05-19T10:43:30;9.30;;;6.32;;
13959;SDS011;7052;51.050;3.716;2023-05-19T10:46:14;12.55;;;8.38;;
13959;SDS011;7052;51.050;3.716;2023-05-19T10:48:42;10.57;;;7.80;;
13959;SDS011;7052;51.050;3.716;2023-05-19T10:51:11;12.68;;;8.35;;
13959;SDS011;7052;51.050;3.716;2023-05-19T10:53:42;12.18;;;8.07;;
13959;SDS011;7052;51.050;3.716;2023-05-19T10:59:00;6.63;;;3.30;;
13959;SDS011;7052;51.050;3.716;2023-05-19T11:01:32;6.95;;;3.58;;
13959;SDS011;7052;51.050;3.716;2023-05-19T11:04:04;6.43;;;3.38;;
13959;SDS011;7052;51.050;3.716;2023-05-19T11:06:37;6.78;;;2.80;;
13959;SDS011;7052;51.050;3.716;2023-05-19T11:09:12;4.72;;;3.15;;
13959;SDS011;7052;51.050;3.716;2023-05-19T11:11:47;5.25;;;3.15;;
13959;SDS011;7052;51.050;3.716;2023-05-19T11:14:16;6.55;;;2.97;;
13959;SDS011;7052;51.050;3.716;2023-05-19T11:16:49;9.07;;;3.88;;
13959;SDS011;7052;51.050;3.716;2023-05-19T11:19:18;8.00;;;3.80;;
13959;SDS011;7052;51.050;3.716;2023-05-19T11:21:51;5.55;;;3.92;;
13959;SDS011;7052;51.050;3.716;2023-05-19T11:24:32;6.45;;;4.00;;
13959;SDS011;7052;51.050;3.716;2023-05-19T11:27:20;5.97;;;3.92;;
13959;SDS011;7052;51.050;3.716;2023-05-19T11:29:53;7.53;;;3.90;;
13959;SDS011;7052;51.050;3.716;2023-05-19T11:32:26;7.50;;;3.67;;
13959;SDS011;7052;51.050;3.716;2023-05-19T11:34:55;9.23;;;4.00;;
13959;SDS011;7052;51.050;3.716;2023-05-19T11:37:23;6.55;;;3.85;;
13959;SDS011;7052;51.050;3.716;2023-05-19T11:39:52;10.13;;;4.97;;
13959;SDS011;7052;51.050;3.716;2023-05-19T11:42:20;6.95;;;4.35;;
13959;SDS011;7052;51.050;3.716;2023-05-19T11:44:49;7.93;;;4.00;;
13959;SDS011;7052;51.050;3.716;2023-05-19T11:47:21;8.18;;;3.65;;
13959;SDS011;7052;51.050;3.716;2023-05-19T11:49:51;10.18;;;5.15;;
13959;SDS011;7052;51.050;3.716;2023-05-19T11:52:21;5.93;;;4.10;;
13959;SDS011;7052;51.050;3.716;2023-05-19T11:54:53;7.55;;;4.18;;
13959;SDS011;7052;51.050;3.716;2023-05-19T11:57:26;7.82;;;4.55;;
13959;SDS011;7052;51.050;3.716;2023-05-19T11:59:55;5.38;;;3.90;;
13959;SDS011;7052;51.050;3.716;2023-05-19T12:02:22;6.00;;;4.72;;
13959;SDS011;7052;51.050;3.716;2023-05-19T12:05:03;8.43;;;4.70;;
13959;SDS011;7052;51.050;3.716;2023-05-19T12:07:31;11.55;;;4.70;;
13959;SDS011;7052;51.050;3.716;2023-05-19T12:09:58;9.90;;;4.88;;
13959;SDS011;7052;51.050;3.716;2023-05-19T12:12:26;9.30;;;4.88;;
13959;SDS011;7052;51.050;3.716;2023-05-19T12:14:57;12.60;;;5.03;;
13959;SDS011;7052;51.050;3.716;2023-05-19T12:17:30;45.65;;;11.48;;
13959;SDS011;7052;51.050;3.716;2023-05-19T12:20:02;6.97;;;5.28;;
13959;SDS011;7052;51.050;3.716;2023-05-19T12:22:31;8.68;;;5.40;;
13959;SDS011;7052;51.050;3.716;2023-05-19T12:24:59;8.45;;;5.38;;
13959;SDS011;7052;51.050;3.716;2023-05-19T12:27:29;11.27;;;6.10;;
13959;SDS011;7052;51.050;3.716;2023-05-19T12:30:01;9.30;;;5.22;;
13959;SDS011;7052;51.050;3.716;2023-05-19T12:32:34;9.30;;;5.20;;
13959;SDS011;7052;51.050;3.716;2023-05-19T12:35:03;7.70;;;5.53;;
13959;SDS011;7052;51.050;3.716;2023-05-19T12:37:31;9.40;;;4.88;;
13959;SDS011;7052;51.050;3.716;2023-05-19T12:39:59;9.30;;;5.10;;
13959;SDS011;7052;51.050;3.716;2023-05-19T12:42:28;10.20;;;4.95;;
13959;SDS011;7052;51.050;3.716;2023-05-19T12:45:01;9.73;;;5.20;;
13959;SDS011;7052;51.050;3.716;2023-05-19T12:47:33;10.25;;;4.93;;
13959;SDS011;7052;51.050;3.716;2023-05-19T12:50:03;8.75;;;4.57;;
13959;SDS011;7052;51.050;3.716;2023-05-19T12:52:39;6.65;;;5.13;;
13959;SDS011;7052;51.050;3.716;2023-05-19T12:55:10;8.55;;;5.45;;
13959;SDS011;7052;51.050;3.716;2023-05-19T12:57:38;10.73;;;5.15;;
13959;SDS011;7052;51.050;3.716;2023-05-19T13:00:12;8.65;;;4.88;;
13959;SDS011;7052;51.050;3.716;2023-05-19T13:02:54;6.95;;;4.90;;
13959;SDS011;7052;51.050;3.716;2023-05-19T13:05:27;10.30;;;5.28;;
13959;SDS011;7052;51.050;3.716;2023-05-19T13:07:57;8.35;;;4.93;;
13959;SDS011;7052;51.050;3.716;2023-05-19T13:10:26;8.02;;;4.93;;
13959;SDS011;7052;51.050;3.716;2023-05-19T13:12:57;7.95;;;5.15;;
13959;SDS011;7052;51.050;3.716;2023-05-19T13:15:27;8.00;;;4.93;;
13959;SDS011;7052;51.050;3.716;2023-05-19T13:17:58;7.20;;;5.00;;
13959;SDS011;7052;51.050;3.716;2023-05-19T13:20:28;11.02;;;5.90;;
13959;SDS011;7052;51.050;3.716;2023-05-19T13:22:57;14.25;;;7.43;;
13959;SDS011;7052;51.050;3.716;2023-05-19T13:25:25;9.93;;;6.63;;
13959;SDS011;7052;51.050;3.716;2023-05-19T13:27:55;10.85;;;6.72;;
13959;SDS011;7052;51.050;3.716;2023-05-19T13:30:24;8.02;;;5.50;;
13959;SDS011;7052;51.050;3.716;2023-05-19T13:32:53;11.13;;;5.07;;
13959;SDS011;7052;51.050;3.716;2023-05-19T13:35:21;9.85;;;5.18;;
13959;SDS011;7052;51.050;3.716;2023-05-19T13:37:52;6.97;;;4.50;;
13959;SDS011;7052;51.050;3.716;2023-05-19T13:40:19;9.57;;;5.07;;
13959;SDS011;7052;51.050;3.716;2023-05-19T13:42:47;8.60;;;5.18;;
13959;SDS011;7052;51.050;3.716;2023-05-19T13:45:14;9.77;;;5.30;;
13959;SDS011;7052;51.050;3.716;2023-05-19T13:47:43;11.57;;;5.45;;
13959;SDS011;7052;51.050;3.716;2023-05-19T13:50:10;10.38;;;5.47;;
13959;SDS011;7052;51.050;3.716;2023-05-19T13:52:40;8.45;;;4.80;;
13959;SDS011;7052;51.050;3.716;2023-05-19T13:55:09;9.32;;;5.20;;
13959;SDS011;7052;51.050;3.716;2023-05-19T13:57:36;10.75;;;6.18;;
13959;SDS011;7052;51.050;3.716;2023-05-19T14:00:04;12.50;;;6.47;;
13959;SDS011;7052;51.050;3.716;2023-05-19T14:02:32;16.63;;;8.15;;
13959;SDS011;7052;51.050;3.716;2023-05-19T14:05:00;10.20;;;6.03;;
13959;SDS011;7052;51.050;3.716;2023-05-19T14:07:27;10.95;;;5.70;;
13959;SDS011;7052;51.050;3.716;2023-05-19T14:09:58;10.43;;;6.22;;
13959;SDS011;7052;51.050;3.716;2023-05-19T14:12:31;9.70;;;5.80;;
13959;SDS011;7052;51.050;3.716;2023-05-19T14:14:59;9.88;;;6.57;;
13959;SDS011;7052;51.050;3.716;2023-05-19T14:17:28;9.68;;;5.90;;
13959;SDS011;7052;51.050;3.716;2023-05-19T14:19:58;11.60;;;5.63;;
13959;SDS011;7052;51.050;3.716;2023-05-19T14:22:26;7.25;;;5.38;;
13959;SDS011;7052;51.050;3.716;2023-05-19T14:24:54;6.70;;;5.00;;
13959;SDS011;7052;51.050;3.716;2023-05-19T14:27:22;9.15;;;5.50;;
13959;SDS011;7052;51.050;3.716;2023-05-19T14:29:51;10.68;;;5.70;;
13959;SDS011;7052;51.050;3.716;2023-05-19T14:32:18;7.82;;;5.53;;
13959;SDS011;7052;51.050;3.716;2023-05-19T14:34:46;6.50;;;4.80;;
13959;SDS011;7052;51.050;3.716;2023-05-19T14:37:16;8.50;;;5.30;;
13959;SDS011;7052;51.050;3.716;2023-05-19T14:39:44;9.68;;;6.07;;
13959;SDS011;7052;51.050;3.716;2023-05-19T14:42:15;8.63;;;5.82;;
13959;SDS011;7052;51.050;3.716;2023-05-19T14:44:43;5.82;;;4.50;;
13959;SDS011;7052;51.050;3.716;2023-05-19T14:47:14;8.07;;;4.57;;
13959;SDS011;7052;51.050;3.716;2023-05-19T14:49:41;11.63;;;5.68;;
13959;SDS011;7052;51.050;3.716;2023-05-19T14:52:09;10.88;;;6.00;;
13959;SDS011;7052;51.050;3.716;2023-05-19T14:54:36;9.50;;;5.60;;
13959;SDS011;7052;51.050;3.716;2023-05-19T14:57:05;10.15;;;5.55;;
13959;SDS011;7052;51.050;3.716;2023-05-19T14:59:35;9.02;;;5.57;;
13959;SDS011;7052;51.050;3.716;2023-05-19T15:02:03;7.03;;;4.93;;
13959;SDS011;7052;51.050;3.716;2023-05-19T15:04:34;10.45;;;5.13;;
13959;SDS011;7052;51.050;3.716;2023-05-19T15:07:01;7.65;;;4.82;;